sensor_id;sensor_type;location;lat;lon;timestamp;P1;durP1;ratioP1;P2;durP2;ratioP2
56720;SDS011;53183;47.412;18.884;2022-12-07T00:01:24;13.95;;;6.43;;
56720;SDS011;53183;47.412;18.884;2022-12-07T00:03:59;12.43;;;6.95;;
56720;SDS011;53183;47.412;18.884;2022-12-07T00:06:36;12.05;;;6.47;;
56720;SDS011;53183;47.412;18.884;2022-12-07T00:09:05;9.87;;;5.87;;
56720;SDS011;53183;47.412;18.884;2022-12-07T00:11:33;14.10;;;6.03;;
56720;SDS011;53183;47.412;18.884;2022-12-07T00:14:02;15.82;;;6.78;;
56720;SDS011;53183;47.412;18.884;2022-12-07T00:16:33;9.70;;;5.68;;
56720;SDS011;53183;47.412;18.884;2022-12-07T00:19:01;9.90;;;5.30;;
56720;SDS011;53183;47.412;18.884;2022-12-07T00:21:29;10.48;;;6.20;;
56720;SDS011;53183;47.412;18.884;2022-12-07T00:23:58;9.38;;;6.05;;
56720;SDS011;53183;47.412;18.884;2022-12-07T00:26:27;9.15;;;5.53;;
56720;SDS011;53183;47.412;18.884;2022-12-07T00:28:58;11.98;;;6.18;;
56720;SDS011;53183;47.412;18.884;2022-12-07T00:31:29;10.15;;;5.07;;
56720;SDS011;53183;47.412;18.884;2022-12-07T00:33:57;12.52;;;5.90;;
56720;SDS011;53183;47.412;18.884;2022-12-07T00:36:25;12.20;;;6.65;;
56720;SDS011;53183;47.412;18.884;2022-12-07T00:38:54;14.38;;;6.65;;
56720;SDS011;53183;47.412;18.884;2022-12-07T00:41:22;13.60;;;7.50;;
56720;SDS011;53183;47.412;18.884;2022-12-07T00:43:51;10.05;;;6.87;;
56720;SDS011;53183;47.412;18.884;2022-12-07T00:46:19;14.80;;;7.57;;
56720;SDS011;53183;47.412;18.884;2022-12-07T00:48:48;12.55;;;7.57;;
56720;SDS011;53183;47.412;18.884;2022-12-07T00:51:17;15.45;;;8.88;;
56720;SDS011;53183;47.412;18.884;2022-12-07T00:53:45;15.73;;;8.27;;
56720;SDS011;53183;47.412;18.884;2022-12-07T00:56:20;16.67;;;7.90;;
56720;SDS011;53183;47.412;18.884;2022-12-07T00:58:52;13.77;;;6.90;;
56720;SDS011;53183;47.412;18.884;2022-12-07T01:01:20;14.35;;;7.40;;
56720;SDS011;53183;47.412;18.884;2022-12-07T01:03:48;14.15;;;6.65;;
56720;SDS011;53183;47.412;18.884;2022-12-07T01:06:16;10.32;;;6.47;;
56720;SDS011;53183;47.412;18.884;2022-12-07T01:08:44;12.27;;;5.45;;
56720;SDS011;53183;47.412;18.884;2022-12-07T01:11:13;12.00;;;6.25;;
56720;SDS011;53183;47.412;18.884;2022-12-07T01:13:42;11.05;;;5.37;;
56720;SDS011;53183;47.412;18.884;2022-12-07T01:16:11;10.90;;;5.55;;
56720;SDS011;53183;47.412;18.884;2022-12-07T01:18:40;15.40;;;5.97;;
56720;SDS011;53183;47.412;18.884;2022-12-07T01:21:12;9.27;;;5.62;;
56720;SDS011;53183;47.412;18.884;2022-12-07T01:23:45;8.98;;;5.57;;
56720;SDS011;53183;47.412;18.884;2022-12-07T01:26:13;12.40;;;5.78;;
56720;SDS011;53183;47.412;18.884;2022-12-07T01:28:42;16.83;;;6.68;;
56720;SDS011;53183;47.412;18.884;2022-12-07T01:31:11;10.90;;;6.45;;
56720;SDS011;53183;47.412;18.884;2022-12-07T01:33:44;10.07;;;5.72;;
56720;SDS011;53183;47.412;18.884;2022-12-07T01:36:14;11.68;;;6.25;;
56720;SDS011;53183;47.412;18.884;2022-12-07T01:38:41;11.25;;;5.70;;
56720;SDS011;53183;47.412;18.884;2022-12-07T01:41:09;9.90;;;6.15;;
56720;SDS011;53183;47.412;18.884;2022-12-07T01:44:06;10.43;;;5.95;;
56720;SDS011;53183;47.412;18.884;2022-12-07T01:46:39;13.38;;;5.40;;
56720;SDS011;53183;47.412;18.884;2022-12-07T01:49:08;9.07;;;5.62;;
56720;SDS011;53183;47.412;18.884;2022-12-07T01:51:41;9.52;;;5.75;;
56720;SDS011;53183;47.412;18.884;2022-12-07T01:54:10;13.85;;;6.97;;
56720;SDS011;53183;47.412;18.884;2022-12-07T01:56:40;10.48;;;5.93;;
56720;SDS011;53183;47.412;18.884;2022-12-07T01:59:13;11.10;;;6.30;;
56720;SDS011;53183;47.412;18.884;2022-12-07T02:01:41;12.73;;;6.90;;
56720;SDS011;53183;47.412;18.884;2022-12-07T02:04:09;13.43;;;7.10;;
56720;SDS011;53183;47.412;18.884;2022-12-07T02:06:37;16.80;;;8.38;;
56720;SDS011;53183;47.412;18.884;2022-12-07T02:09:05;14.70;;;7.85;;
56720;SDS011;53183;47.412;18.884;2022-12-07T02:11:32;13.50;;;7.25;;
56720;SDS011;53183;47.412;18.884;2022-12-07T02:14:00;15.48;;;7.80;;
56720;SDS011;53183;47.412;18.884;2022-12-07T02:27:46;15.02;;;8.43;;
56720;SDS011;53183;47.412;18.884;2022-12-07T02:30:21;11.82;;;7.87;;
56720;SDS011;53183;47.412;18.884;2022-12-07T02:38:30;14.35;;;8.27;;
56720;SDS011;53183;47.412;18.884;2022-12-07T02:41:30;14.00;;;7.30;;
56720;SDS011;53183;47.412;18.884;2022-12-07T02:44:03;15.65;;;7.95;;
56720;SDS011;53183;47.412;18.884;2022-12-07T02:46:36;13.57;;;7.97;;
56720;SDS011;53183;47.412;18.884;2022-12-07T02:49:08;15.60;;;8.48;;
56720;SDS011;53183;47.412;18.884;2022-12-07T02:51:43;13.48;;;7.72;;
56720;SDS011;53183;47.412;18.884;2022-12-07T02:54:13;14.25;;;7.60;;
56720;SDS011;53183;47.412;18.884;2022-12-07T02:59:57;12.25;;;7.95;;
56720;SDS011;53183;47.412;18.884;2022-12-07T03:10:35;12.95;;;7.68;;
56720;SDS011;53183;47.412;18.884;2022-12-07T03:15:45;14.70;;;7.93;;
56720;SDS011;53183;47.412;18.884;2022-12-07T03:18:18;16.00;;;8.77;;
56720;SDS011;53183;47.412;18.884;2022-12-07T03:20:48;14.90;;;8.27;;
56720;SDS011;53183;47.412;18.884;2022-12-07T03:23:20;12.27;;;7.15;;
56720;SDS011;53183;47.412;18.884;2022-12-07T03:25:49;15.73;;;7.68;;
56720;SDS011;53183;47.412;18.884;2022-12-07T03:28:29;11.20;;;7.07;;
56720;SDS011;53183;47.412;18.884;2022-12-07T03:31:04;12.63;;;6.90;;
56720;SDS011;53183;47.412;18.884;2022-12-07T03:33:34;11.35;;;6.62;;
56720;SDS011;53183;47.412;18.884;2022-12-07T03:39:04;16.70;;;7.20;;
56720;SDS011;53183;47.412;18.884;2022-12-07T03:41:35;12.43;;;7.68;;
56720;SDS011;53183;47.412;18.884;2022-12-07T03:44:11;17.25;;;7.82;;
56720;SDS011;53183;47.412;18.884;2022-12-07T03:46:44;16.10;;;8.90;;
56720;SDS011;53183;47.412;18.884;2022-12-07T03:49:28;17.02;;;8.32;;
56720;SDS011;53183;47.412;18.884;2022-12-07T03:52:20;15.10;;;8.35;;
56720;SDS011;53183;47.412;18.884;2022-12-07T03:58:08;11.98;;;7.00;;
56720;SDS011;53183;47.412;18.884;2022-12-07T04:00:40;12.25;;;7.57;;
56720;SDS011;53183;47.412;18.884;2022-12-07T04:03:08;13.85;;;7.95;;
56720;SDS011;53183;47.412;18.884;2022-12-07T04:05:38;12.37;;;7.18;;
56720;SDS011;53183;47.412;18.884;2022-12-07T04:08:06;11.82;;;7.15;;
56720;SDS011;53183;47.412;18.884;2022-12-07T04:10:33;14.73;;;7.32;;
56720;SDS011;53183;47.412;18.884;2022-12-07T04:13:01;13.52;;;7.40;;
56720;SDS011;53183;47.412;18.884;2022-12-07T04:15:28;14.90;;;8.00;;
56720;SDS011;53183;47.412;18.884;2022-12-07T04:17:55;12.15;;;8.32;;
56720;SDS011;53183;47.412;18.884;2022-12-07T04:20:22;13.95;;;7.80;;
56720;SDS011;53183;47.412;18.884;2022-12-07T04:22:49;15.07;;;7.95;;
56720;SDS011;53183;47.412;18.884;2022-12-07T04:25:16;12.98;;;7.90;;
56720;SDS011;53183;47.412;18.884;2022-12-07T04:27:43;13.43;;;7.82;;
56720;SDS011;53183;47.412;18.884;2022-12-07T04:30:10;11.55;;;7.43;;
56720;SDS011;53183;47.412;18.884;2022-12-07T04:32:38;12.45;;;7.22;;
56720;SDS011;53183;47.412;18.884;2022-12-07T04:35:05;13.75;;;7.05;;
56720;SDS011;53183;47.412;18.884;2022-12-07T04:37:32;14.00;;;7.53;;
56720;SDS011;53183;47.412;18.884;2022-12-07T04:40:00;13.48;;;8.05;;
56720;SDS011;53183;47.412;18.884;2022-12-07T04:42:27;12.73;;;8.02;;
56720;SDS011;53183;47.412;18.884;2022-12-07T04:44:54;13.65;;;7.55;;
56720;SDS011;53183;47.412;18.884;2022-12-07T04:47:22;14.95;;;8.65;;
56720;SDS011;53183;47.412;18.884;2022-12-07T04:49:49;11.85;;;8.15;;
56720;SDS011;53183;47.412;18.884;2022-12-07T04:52:16;15.57;;;9.90;;
56720;SDS011;53183;47.412;18.884;2022-12-07T04:54:43;14.75;;;7.87;;
56720;SDS011;53183;47.412;18.884;2022-12-07T04:57:10;14.35;;;8.60;;
56720;SDS011;53183;47.412;18.884;2022-12-07T04:59:37;15.23;;;8.68;;
56720;SDS011;53183;47.412;18.884;2022-12-07T05:02:11;15.40;;;8.52;;
56720;SDS011;53183;47.412;18.884;2022-12-07T05:04:38;16.50;;;9.32;;
56720;SDS011;53183;47.412;18.884;2022-12-07T05:07:05;14.25;;;7.75;;
56720;SDS011;53183;47.412;18.884;2022-12-07T05:09:32;13.62;;;7.55;;
56720;SDS011;53183;47.412;18.884;2022-12-07T05:11:59;14.43;;;8.35;;
56720;SDS011;53183;47.412;18.884;2022-12-07T05:14:26;14.60;;;8.23;;
56720;SDS011;53183;47.412;18.884;2022-12-07T05:16:54;15.13;;;7.72;;
56720;SDS011;53183;47.412;18.884;2022-12-07T05:19:21;15.68;;;8.45;;
56720;SDS011;53183;47.412;18.884;2022-12-07T05:21:48;17.45;;;8.90;;
56720;SDS011;53183;47.412;18.884;2022-12-07T05:24:16;15.13;;;8.02;;
56720;SDS011;53183;47.412;18.884;2022-12-07T05:26:43;13.40;;;7.97;;
56720;SDS011;53183;47.412;18.884;2022-12-07T05:29:14;12.73;;;8.05;;
56720;SDS011;53183;47.412;18.884;2022-12-07T05:31:44;14.07;;;8.63;;
56720;SDS011;53183;47.412;18.884;2022-12-07T05:34:11;15.75;;;8.85;;
56720;SDS011;53183;47.412;18.884;2022-12-07T05:36:38;15.57;;;9.15;;
56720;SDS011;53183;47.412;18.884;2022-12-07T05:39:06;13.77;;;8.60;;
56720;SDS011;53183;47.412;18.884;2022-12-07T05:41:33;13.52;;;8.02;;
56720;SDS011;53183;47.412;18.884;2022-12-07T05:44:19;13.30;;;8.25;;
56720;SDS011;53183;47.412;18.884;2022-12-07T05:46:46;17.00;;;8.15;;
56720;SDS011;53183;47.412;18.884;2022-12-07T05:49:13;13.88;;;7.97;;
56720;SDS011;53183;47.412;18.884;2022-12-07T05:51:41;16.42;;;8.93;;
56720;SDS011;53183;47.412;18.884;2022-12-07T05:54:08;20.20;;;10.15;;
56720;SDS011;53183;47.412;18.884;2022-12-07T05:56:35;17.95;;;9.82;;
56720;SDS011;53183;47.412;18.884;2022-12-07T05:59:02;21.58;;;11.93;;
56720;SDS011;53183;47.412;18.884;2022-12-07T06:01:52;20.73;;;9.68;;
56720;SDS011;53183;47.412;18.884;2022-12-07T06:04:22;26.70;;;12.68;;
56720;SDS011;53183;47.412;18.884;2022-12-07T06:06:50;76.40;;;32.58;;
56720;SDS011;53183;47.412;18.884;2022-12-07T06:09:18;61.42;;;24.98;;
56720;SDS011;53183;47.412;18.884;2022-12-07T06:11:47;70.95;;;28.00;;
56720;SDS011;53183;47.412;18.884;2022-12-07T06:14:32;50.78;;;24.40;;
56720;SDS011;53183;47.412;18.884;2022-12-07T06:17:00;48.90;;;24.75;;
56720;SDS011;53183;47.412;18.884;2022-12-07T06:19:27;46.90;;;20.27;;
56720;SDS011;53183;47.412;18.884;2022-12-07T06:21:54;43.38;;;20.65;;
56720;SDS011;53183;47.412;18.884;2022-12-07T06:24:22;35.78;;;17.60;;
56720;SDS011;53183;47.412;18.884;2022-12-07T06:26:49;35.70;;;17.30;;
56720;SDS011;53183;47.412;18.884;2022-12-07T06:29:16;27.83;;;14.63;;
56720;SDS011;53183;47.412;18.884;2022-12-07T06:31:44;23.38;;;12.43;;
56720;SDS011;53183;47.412;18.884;2022-12-07T06:34:13;27.98;;;14.25;;
56720;SDS011;53183;47.412;18.884;2022-12-07T06:36:42;27.87;;;15.10;;
56720;SDS011;53183;47.412;18.884;2022-12-07T06:39:10;29.50;;;14.57;;
56720;SDS011;53183;47.412;18.884;2022-12-07T06:41:37;27.27;;;15.18;;
56720;SDS011;53183;47.412;18.884;2022-12-07T06:44:05;27.50;;;14.60;;
56720;SDS011;53183;47.412;18.884;2022-12-07T06:46:33;29.70;;;15.35;;
56720;SDS011;53183;47.412;18.884;2022-12-07T06:49:02;21.75;;;13.60;;
56720;SDS011;53183;47.412;18.884;2022-12-07T06:51:30;27.67;;;15.10;;
56720;SDS011;53183;47.412;18.884;2022-12-07T06:53:58;29.37;;;13.75;;
56720;SDS011;53183;47.412;18.884;2022-12-07T06:56:25;31.27;;;15.32;;
56720;SDS011;53183;47.412;18.884;2022-12-07T06:58:52;26.92;;;12.88;;
56720;SDS011;53183;47.412;18.884;2022-12-07T07:01:19;21.42;;;10.88;;
56720;SDS011;53183;47.412;18.884;2022-12-07T07:03:47;15.43;;;9.13;;
56720;SDS011;53183;47.412;18.884;2022-12-07T07:06:14;15.10;;;7.95;;
56720;SDS011;53183;47.412;18.884;2022-12-07T07:08:42;15.48;;;8.60;;
56720;SDS011;53183;47.412;18.884;2022-12-07T07:11:09;17.58;;;8.93;;
56720;SDS011;53183;47.412;18.884;2022-12-07T07:13:37;14.73;;;8.63;;
56720;SDS011;53183;47.412;18.884;2022-12-07T07:16:05;19.58;;;9.48;;
56720;SDS011;53183;47.412;18.884;2022-12-07T07:18:33;17.50;;;9.90;;
56720;SDS011;53183;47.412;18.884;2022-12-07T07:21:00;20.50;;;10.77;;
56720;SDS011;53183;47.412;18.884;2022-12-07T07:23:34;21.17;;;10.55;;
56720;SDS011;53183;47.412;18.884;2022-12-07T07:26:01;23.10;;;12.80;;
56720;SDS011;53183;47.412;18.884;2022-12-07T07:28:29;18.20;;;10.30;;
56720;SDS011;53183;47.412;18.884;2022-12-07T07:30:56;17.87;;;9.02;;
56720;SDS011;53183;47.412;18.884;2022-12-07T07:33:23;14.07;;;8.57;;
56720;SDS011;53183;47.412;18.884;2022-12-07T07:35:50;14.13;;;9.35;;
56720;SDS011;53183;47.412;18.884;2022-12-07T07:38:17;16.40;;;8.93;;
56720;SDS011;53183;47.412;18.884;2022-12-07T07:40:44;16.08;;;9.00;;
56720;SDS011;53183;47.412;18.884;2022-12-07T07:43:12;17.65;;;8.50;;
56720;SDS011;53183;47.412;18.884;2022-12-07T07:45:39;18.05;;;10.27;;
56720;SDS011;53183;47.412;18.884;2022-12-07T07:48:07;15.23;;;8.82;;
56720;SDS011;53183;47.412;18.884;2022-12-07T07:50:34;22.10;;;10.90;;
56720;SDS011;53183;47.412;18.884;2022-12-07T07:53:01;15.98;;;9.43;;
56720;SDS011;53183;47.412;18.884;2022-12-07T07:55:28;14.93;;;8.50;;
56720;SDS011;53183;47.412;18.884;2022-12-07T07:57:56;16.10;;;9.00;;
56720;SDS011;53183;47.412;18.884;2022-12-07T08:00:23;16.92;;;9.57;;
56720;SDS011;53183;47.412;18.884;2022-12-07T08:02:50;20.02;;;12.25;;
56720;SDS011;53183;47.412;18.884;2022-12-07T08:05:17;17.50;;;10.48;;
56720;SDS011;53183;47.412;18.884;2022-12-07T08:07:44;18.62;;;10.07;;
56720;SDS011;53183;47.412;18.884;2022-12-07T08:10:12;20.40;;;10.75;;
56720;SDS011;53183;47.412;18.884;2022-12-07T08:12:40;20.83;;;11.02;;
56720;SDS011;53183;47.412;18.884;2022-12-07T08:15:29;24.02;;;12.98;;
56720;SDS011;53183;47.412;18.884;2022-12-07T08:17:57;46.83;;;20.02;;
56720;SDS011;53183;47.412;18.884;2022-12-07T08:20:25;43.35;;;19.12;;
56720;SDS011;53183;47.412;18.884;2022-12-07T08:22:53;36.15;;;16.35;;
56720;SDS011;53183;47.412;18.884;2022-12-07T08:25:20;44.10;;;20.23;;
56720;SDS011;53183;47.412;18.884;2022-12-07T08:27:48;49.00;;;23.23;;
56720;SDS011;53183;47.412;18.884;2022-12-07T08:30:16;36.97;;;19.17;;
56720;SDS011;53183;47.412;18.884;2022-12-07T08:32:44;28.52;;;14.77;;
56720;SDS011;53183;47.412;18.884;2022-12-07T08:35:12;21.87;;;10.70;;
56720;SDS011;53183;47.412;18.884;2022-12-07T08:37:40;20.27;;;9.98;;
56720;SDS011;53183;47.412;18.884;2022-12-07T08:40:08;18.67;;;11.02;;
56720;SDS011;53183;47.412;18.884;2022-12-07T08:42:37;19.30;;;11.00;;
56720;SDS011;53183;47.412;18.884;2022-12-07T08:45:08;14.70;;;9.63;;
56720;SDS011;53183;47.412;18.884;2022-12-07T08:47:37;18.17;;;10.07;;
56720;SDS011;53183;47.412;18.884;2022-12-07T08:50:08;21.08;;;11.20;;
56720;SDS011;53183;47.412;18.884;2022-12-07T08:52:37;22.35;;;12.10;;
56720;SDS011;53183;47.412;18.884;2022-12-07T08:55:09;22.08;;;11.23;;
56720;SDS011;53183;47.412;18.884;2022-12-07T08:57:38;17.85;;;10.07;;
56720;SDS011;53183;47.412;18.884;2022-12-07T09:00:06;21.42;;;10.57;;
56720;SDS011;53183;47.412;18.884;2022-12-07T09:02:34;19.02;;;9.90;;
56720;SDS011;53183;47.412;18.884;2022-12-07T09:05:02;16.60;;;9.68;;
56720;SDS011;53183;47.412;18.884;2022-12-07T09:07:29;22.65;;;11.05;;
56720;SDS011;53183;47.412;18.884;2022-12-07T09:09:59;21.10;;;10.30;;
56720;SDS011;53183;47.412;18.884;2022-12-07T09:12:27;20.48;;;11.77;;
56720;SDS011;53183;47.412;18.884;2022-12-07T09:14:55;20.25;;;10.75;;
56720;SDS011;53183;47.412;18.884;2022-12-07T09:17:23;16.85;;;10.20;;
56720;SDS011;53183;47.412;18.884;2022-12-07T09:19:50;21.67;;;10.85;;
56720;SDS011;53183;47.412;18.884;2022-12-07T09:22:17;17.60;;;10.23;;
56720;SDS011;53183;47.412;18.884;2022-12-07T09:24:45;17.55;;;10.27;;
56720;SDS011;53183;47.412;18.884;2022-12-07T09:27:12;15.02;;;9.38;;
56720;SDS011;53183;47.412;18.884;2022-12-07T09:29:39;17.85;;;9.48;;
56720;SDS011;53183;47.412;18.884;2022-12-07T09:32:07;14.75;;;9.18;;
56720;SDS011;53183;47.412;18.884;2022-12-07T09:34:37;18.98;;;8.93;;
56720;SDS011;53183;47.412;18.884;2022-12-07T09:37:05;14.27;;;8.65;;
56720;SDS011;53183;47.412;18.884;2022-12-07T09:39:33;14.68;;;9.00;;
56720;SDS011;53183;47.412;18.884;2022-12-07T09:42:02;14.32;;;8.27;;
56720;SDS011;53183;47.412;18.884;2022-12-07T09:44:31;16.87;;;8.88;;
56720;SDS011;53183;47.412;18.884;2022-12-07T09:46:59;15.27;;;9.18;;
56720;SDS011;53183;47.412;18.884;2022-12-07T09:49:30;16.40;;;9.05;;
56720;SDS011;53183;47.412;18.884;2022-12-07T09:52:03;17.85;;;9.75;;
56720;SDS011;53183;47.412;18.884;2022-12-07T09:54:31;15.85;;;9.65;;
56720;SDS011;53183;47.412;18.884;2022-12-07T09:57:03;17.27;;;9.15;;
56720;SDS011;53183;47.412;18.884;2022-12-07T09:59:30;15.85;;;8.77;;
56720;SDS011;53183;47.412;18.884;2022-12-07T10:02:19;15.32;;;9.50;;
56720;SDS011;53183;47.412;18.884;2022-12-07T10:04:55;15.98;;;9.05;;
56720;SDS011;53183;47.412;18.884;2022-12-07T10:07:24;14.77;;;8.65;;
56720;SDS011;53183;47.412;18.884;2022-12-07T10:09:51;15.57;;;8.60;;
56720;SDS011;53183;47.412;18.884;2022-12-07T10:12:19;16.95;;;9.57;;
56720;SDS011;53183;47.412;18.884;2022-12-07T10:17:47;17.40;;;9.85;;
56720;SDS011;53183;47.412;18.884;2022-12-07T10:20:18;13.07;;;8.43;;
56720;SDS011;53183;47.412;18.884;2022-12-07T10:22:57;15.27;;;9.05;;
56720;SDS011;53183;47.412;18.884;2022-12-07T10:25:29;17.58;;;9.18;;
56720;SDS011;53183;47.412;18.884;2022-12-07T10:30:30;17.02;;;9.88;;
56720;SDS011;53183;47.412;18.884;2022-12-07T10:32:59;16.58;;;9.18;;
56720;SDS011;53183;47.412;18.884;2022-12-07T10:35:28;20.17;;;10.52;;
56720;SDS011;53183;47.412;18.884;2022-12-07T10:37:58;17.17;;;9.68;;
56720;SDS011;53183;47.412;18.884;2022-12-07T10:40:28;13.30;;;7.93;;
56720;SDS011;53183;47.412;18.884;2022-12-07T10:59:39;15.60;;;8.18;;
56720;SDS011;53183;47.412;18.884;2022-12-07T11:08:21;11.82;;;6.20;;
56720;SDS011;53183;47.412;18.884;2022-12-07T11:11:04;10.50;;;6.78;;
56720;SDS011;53183;47.412;18.884;2022-12-07T11:16:34;11.32;;;6.22;;
56720;SDS011;53183;47.412;18.884;2022-12-07T11:33:40;10.18;;;6.00;;
56720;SDS011;53183;47.412;18.884;2022-12-07T11:39:00;12.40;;;6.75;;
56720;SDS011;53183;47.412;18.884;2022-12-07T11:41:38;10.02;;;5.87;;
56720;SDS011;53183;47.412;18.884;2022-12-07T11:47:07;8.52;;;5.35;;
56720;SDS011;53183;47.412;18.884;2022-12-07T11:52:17;11.88;;;6.82;;
56720;SDS011;53183;47.412;18.884;2022-12-07T11:54:51;20.80;;;7.68;;
56720;SDS011;53183;47.412;18.884;2022-12-07T11:57:22;34.33;;;11.50;;
56720;SDS011;53183;47.412;18.884;2022-12-07T11:59:59;43.03;;;10.00;;
56720;SDS011;53183;47.412;18.884;2022-12-07T12:02:35;12.63;;;7.57;;
56720;SDS011;53183;47.412;18.884;2022-12-07T12:07:58;14.30;;;6.25;;
56720;SDS011;53183;47.412;18.884;2022-12-07T12:22:45;13.23;;;6.15;;
56720;SDS011;53183;47.412;18.884;2022-12-07T12:25:19;21.40;;;5.72;;
56720;SDS011;53183;47.412;18.884;2022-12-07T12:27:48;9.30;;;5.62;;
56720;SDS011;53183;47.412;18.884;2022-12-07T12:30:25;13.93;;;5.87;;
56720;SDS011;53183;47.412;18.884;2022-12-07T12:33:32;12.68;;;6.53;;
56720;SDS011;53183;47.412;18.884;2022-12-07T12:55:15;10.73;;;5.60;;
56720;SDS011;53183;47.412;18.884;2022-12-07T12:57:48;11.23;;;6.15;;
56720;SDS011;53183;47.412;18.884;2022-12-07T13:00:46;11.32;;;5.87;;
56720;SDS011;53183;47.412;18.884;2022-12-07T13:03:28;9.25;;;5.30;;
56720;SDS011;53183;47.412;18.884;2022-12-07T13:06:17;9.35;;;5.43;;
56720;SDS011;53183;47.412;18.884;2022-12-07T13:08:51;14.35;;;6.30;;
56720;SDS011;53183;47.412;18.884;2022-12-07T13:11:25;14.23;;;7.20;;
56720;SDS011;53183;47.412;18.884;2022-12-07T13:14:35;13.23;;;6.40;;
56720;SDS011;53183;47.412;18.884;2022-12-07T13:19:58;11.68;;;6.07;;
56720;SDS011;53183;47.412;18.884;2022-12-07T13:25:45;13.77;;;5.53;;
56720;SDS011;53183;47.412;18.884;2022-12-07T13:28:15;9.13;;;5.18;;
56720;SDS011;53183;47.412;18.884;2022-12-07T13:31:30;16.30;;;4.68;;
56720;SDS011;53183;47.412;18.884;2022-12-07T13:33:59;8.15;;;3.65;;
56720;SDS011;53183;47.412;18.884;2022-12-07T13:36:27;9.68;;;4.07;;
56720;SDS011;53183;47.412;18.884;2022-12-07T13:39:16;10.82;;;4.57;;
56720;SDS011;53183;47.412;18.884;2022-12-07T13:41:49;12.75;;;4.85;;
56720;SDS011;53183;47.412;18.884;2022-12-07T13:44:18;16.90;;;7.82;;
56720;SDS011;53183;47.412;18.884;2022-12-07T13:49:49;8.15;;;4.20;;
56720;SDS011;53183;47.412;18.884;2022-12-07T13:52:29;7.70;;;4.32;;
56720;SDS011;53183;47.412;18.884;2022-12-07T13:54:58;6.43;;;4.20;;
56720;SDS011;53183;47.412;18.884;2022-12-07T13:57:29;8.65;;;4.60;;
56720;SDS011;53183;47.412;18.884;2022-12-07T13:59:58;8.65;;;4.57;;
56720;SDS011;53183;47.412;18.884;2022-12-07T14:02:26;11.35;;;5.60;;
56720;SDS011;53183;47.412;18.884;2022-12-07T14:05:16;8.15;;;5.00;;
56720;SDS011;53183;47.412;18.884;2022-12-07T14:07:55;9.93;;;5.28;;
56720;SDS011;53183;47.412;18.884;2022-12-07T14:10:38;7.85;;;4.65;;
56720;SDS011;53183;47.412;18.884;2022-12-07T14:15:50;7.43;;;4.70;;
56720;SDS011;53183;47.412;18.884;2022-12-07T14:18:25;9.27;;;6.22;;
56720;SDS011;53183;47.412;18.884;2022-12-07T14:21:29;11.48;;;6.50;;
56720;SDS011;53183;47.412;18.884;2022-12-07T14:26:37;11.48;;;6.45;;
56720;SDS011;53183;47.412;18.884;2022-12-07T14:29:18;12.37;;;6.68;;
56720;SDS011;53183;47.412;18.884;2022-12-07T14:31:47;13.77;;;7.62;;
56720;SDS011;53183;47.412;18.884;2022-12-07T14:34:15;16.90;;;7.20;;
56720;SDS011;53183;47.412;18.884;2022-12-07T14:36:42;12.73;;;7.80;;
56720;SDS011;53183;47.412;18.884;2022-12-07T14:39:09;12.18;;;6.45;;
56720;SDS011;53183;47.412;18.884;2022-12-07T14:41:39;12.15;;;6.20;;
56720;SDS011;53183;47.412;18.884;2022-12-07T14:44:19;12.95;;;6.80;;
56720;SDS011;53183;47.412;18.884;2022-12-07T14:46:53;10.55;;;6.05;;
56720;SDS011;53183;47.412;18.884;2022-12-07T14:49:41;10.98;;;6.37;;
56720;SDS011;53183;47.412;18.884;2022-12-07T14:52:13;14.02;;;7.07;;
56720;SDS011;53183;47.412;18.884;2022-12-07T14:55:04;11.00;;;6.32;;
56720;SDS011;53183;47.412;18.884;2022-12-07T14:57:32;12.57;;;7.60;;
56720;SDS011;53183;47.412;18.884;2022-12-07T14:59:59;10.85;;;6.20;;
56720;SDS011;53183;47.412;18.884;2022-12-07T15:02:26;13.18;;;6.30;;
56720;SDS011;53183;47.412;18.884;2022-12-07T15:04:53;12.77;;;6.25;;
56720;SDS011;53183;47.412;18.884;2022-12-07T15:07:20;11.93;;;5.90;;
56720;SDS011;53183;47.412;18.884;2022-12-07T15:09:48;11.77;;;7.15;;
56720;SDS011;53183;47.412;18.884;2022-12-07T15:12:15;16.52;;;7.82;;
56720;SDS011;53183;47.412;18.884;2022-12-07T15:14:42;13.23;;;6.50;;
56720;SDS011;53183;47.412;18.884;2022-12-07T15:17:10;20.85;;;8.98;;
56720;SDS011;53183;47.412;18.884;2022-12-07T15:19:55;19.10;;;8.52;;
56720;SDS011;53183;47.412;18.884;2022-12-07T15:22:22;16.50;;;8.15;;
56720;SDS011;53183;47.412;18.884;2022-12-07T15:24:49;13.93;;;8.35;;
56720;SDS011;53183;47.412;18.884;2022-12-07T15:27:16;17.83;;;7.80;;
56720;SDS011;53183;47.412;18.884;2022-12-07T15:29:44;16.75;;;8.20;;
56720;SDS011;53183;47.412;18.884;2022-12-07T15:32:11;18.87;;;10.38;;
56720;SDS011;53183;47.412;18.884;2022-12-07T15:34:38;27.10;;;10.00;;
56720;SDS011;53183;47.412;18.884;2022-12-07T15:37:07;24.83;;;12.90;;
56720;SDS011;53183;47.412;18.884;2022-12-07T15:39:35;31.80;;;12.45;;
56720;SDS011;53183;47.412;18.884;2022-12-07T15:42:03;25.83;;;11.18;;
56720;SDS011;53183;47.412;18.884;2022-12-07T15:44:31;24.85;;;11.07;;
56720;SDS011;53183;47.412;18.884;2022-12-07T15:47:16;22.70;;;10.82;;
56720;SDS011;53183;47.412;18.884;2022-12-07T15:49:44;24.20;;;9.95;;
56720;SDS011;53183;47.412;18.884;2022-12-07T15:52:11;19.58;;;9.35;;
56720;SDS011;53183;47.412;18.884;2022-12-07T15:54:38;20.08;;;10.05;;
56720;SDS011;53183;47.412;18.884;2022-12-07T15:57:06;17.85;;;10.18;;
56720;SDS011;53183;47.412;18.884;2022-12-07T15:59:33;19.67;;;9.65;;
56720;SDS011;53183;47.412;18.884;2022-12-07T16:02:00;18.17;;;10.73;;
56720;SDS011;53183;47.412;18.884;2022-12-07T16:04:28;26.42;;;11.12;;
56720;SDS011;53183;47.412;18.884;2022-12-07T16:06:56;20.10;;;11.18;;
56720;SDS011;53183;47.412;18.884;2022-12-07T16:09:24;20.23;;;9.18;;
56720;SDS011;53183;47.412;18.884;2022-12-07T16:11:51;20.62;;;11.57;;
56720;SDS011;53183;47.412;18.884;2022-12-07T16:14:19;20.08;;;10.32;;
56720;SDS011;53183;47.412;18.884;2022-12-07T16:16:46;21.65;;;10.30;;
56720;SDS011;53183;47.412;18.884;2022-12-07T16:19:14;24.25;;;12.18;;
56720;SDS011;53183;47.412;18.884;2022-12-07T16:21:41;25.58;;;11.93;;
56720;SDS011;53183;47.412;18.884;2022-12-07T16:24:08;26.85;;;11.25;;
56720;SDS011;53183;47.412;18.884;2022-12-07T16:26:37;24.63;;;12.05;;
56720;SDS011;53183;47.412;18.884;2022-12-07T16:29:04;26.60;;;12.77;;
56720;SDS011;53183;47.412;18.884;2022-12-07T16:31:31;28.35;;;14.50;;
56720;SDS011;53183;47.412;18.884;2022-12-07T16:33:59;43.05;;;20.05;;
56720;SDS011;53183;47.412;18.884;2022-12-07T16:36:26;40.80;;;19.17;;
56720;SDS011;53183;47.412;18.884;2022-12-07T16:39:14;36.00;;;16.83;;
56720;SDS011;53183;47.412;18.884;2022-12-07T16:41:41;34.42;;;15.85;;
56720;SDS011;53183;47.412;18.884;2022-12-07T16:44:10;36.10;;;14.65;;
56720;SDS011;53183;47.412;18.884;2022-12-07T16:46:39;32.53;;;14.87;;
56720;SDS011;53183;47.412;18.884;2022-12-07T16:49:10;31.42;;;14.23;;
56720;SDS011;53183;47.412;18.884;2022-12-07T16:51:38;28.38;;;13.82;;
56720;SDS011;53183;47.412;18.884;2022-12-07T16:54:05;26.62;;;12.32;;
56720;SDS011;53183;47.412;18.884;2022-12-07T16:56:32;29.58;;;13.32;;
56720;SDS011;53183;47.412;18.884;2022-12-07T16:59:00;29.15;;;13.68;;